Time;durP1;ratioP1;P1;durP2;ratioP2;P2;SDS_P1;SDS_P2;PMS_P1;PMS_P2;Temp;Humidity;BMP_temperature;BMP_pressure;BME280_temperature;BME280_humidity;BME280_pressure;Samples;Min_cycle;Max_cycle;Signal;HPM_P1;HPM_P2
2023/05/25 00:00:42;;;;;;;6.30;4.35;;;;;;;;;;13002704;19;20013;-60
2023/05/25 00:05:20;;;;;;;8.65;4.75;;;;;;;;;;13002659;19;20008;-61
2023/05/25 00:09:39;;;;;;;7.72;4.90;;;;;;;;;;13002868;19;20130;-61
2023/05/25 00:13:57;;;;;;;8.75;4.78;;;;;;;;;;13002310;19;20033;-61
2023/05/25 00:18:17;;;;;;;7.28;4.70;;;;;;;;;;13001408;19;20011;-61
2023/05/25 00:22:36;;;;;;;6.97;3.88;;;;;;;;;;13001892;19;20042;-61
2023/05/25 00:26:54;;;;;;;12.32;4.65;;;;;;;;;;13001798;19;20029;-61
2023/05/25 00:31:12;;;;;;;;;;;;;;;;;;13000184;19;20491;-61
2023/05/25 00:35:30;;;;;;;8.13;4.72;;;;;;;;;;13001592;19;19921;-61
2023/05/25 00:39:47;;;;;;;8.75;4.75;;;;;;;;;;13001380;19;20061;-61
2023/05/25 00:44:05;;;;;;;;;;;;;;;;;;12998917;19;20489;-61
2023/05/25 00:48:27;;;;;;;9.05;5.00;;;;;;;;;;13000646;19;19915;-62
2023/05/25 00:52:45;;;;;;;8.43;4.88;;;;;;;;;;13000562;19;20371;-61
2023/05/25 00:57:06;;;;;;;10.90;5.47;;;;;;;;;;12999463;19;20038;-61
2023/05/25 01:01:27;;;;;;;9.15;5.43;;;;;;;;;;13003011;19;19999;-61
2023/05/25 01:05:50;;;;;;;8.00;5.30;;;;;;;;;;13013371;19;20006;-61
2023/05/25 01:10:10;;;;;;;13.80;5.82;;;;;;;;;;13011937;19;20330;-62
2023/05/25 01:14:31;;;;;;;15.25;6.10;;;;;;;;;;13012665;19;20025;-61
2023/05/25 01:18:51;;;;;;;10.93;6.32;;;;;;;;;;13012538;19;20002;-62
2023/05/25 01:23:13;;;;;;;9.27;5.97;;;;;;;;;;13010908;19;20180;-62
2023/05/25 01:27:42;;;;;;;12.18;6.15;;;;;;;;;;13011495;19;20017;-61
2023/05/25 01:32:02;;;;;;;10.60;6.13;;;;;;;;;;13011076;19;20014;-62
2023/05/25 01:36:20;;;;;;;11.63;6.97;;;;;;;;;;13009444;19;20014;-63
2023/05/25 01:40:37;;;;;;;12.80;7.03;;;;;;;;;;13011449;19;20022;-62
2023/05/25 01:44:57;;;;;;;10.30;7.03;;;;;;;;;;13009219;19;20002;-62
2023/05/25 01:49:36;;;;;;;10.13;6.75;;;;;;;;;;13008952;19;20030;-62
2023/05/25 01:54:02;;;;;;;11.23;6.85;;;;;;;;;;13010530;19;20009;-63
2023/05/25 01:58:21;;;;;;;10.93;6.30;;;;;;;;;;13008793;19;20044;-63
2023/05/25 02:02:42;;;;;;;13.38;7.55;;;;;;;;;;13008754;19;20002;-62
2023/05/25 02:07:03;;;;;;;14.00;7.45;;;;;;;;;;13007748;19;20006;-62
2023/05/25 02:11:21;;;;;;;13.57;7.28;;;;;;;;;;13009913;19;20442;-62
2023/05/25 02:15:40;;;;;;;14.93;7.78;;;;;;;;;;13009231;19;20002;-63
2023/05/25 02:19:57;;;;;;;12.88;7.25;;;;;;;;;;13010591;19;20018;-63
2023/05/25 02:24:17;;;;;;;11.95;6.72;;;;;;;;;;13008600;19;20010;-62
2023/05/25 02:28:34;;;;;;;9.77;5.95;;;;;;;;;;13008435;19;20006;-62
2023/05/25 02:32:53;;;;;;;9.88;6.55;;;;;;;;;;13008673;19;20005;-62
2023/05/25 02:37:12;;;;;;;12.27;6.72;;;;;;;;;;13007657;19;20014;-62
2023/05/25 02:41:30;;;;;;;11.00;6.68;;;;;;;;;;13007680;19;20018;-62
2023/05/25 02:45:48;;;;;;;12.73;6.53;;;;;;;;;;13007434;19;20007;-62
2023/05/25 02:50:27;;;;;;;13.77;7.13;;;;;;;;;;13007457;19;20010;-62
2023/05/25 02:54:46;;;;;;;13.27;6.93;;;;;;;;;;13007453;19;20430;-62
2023/05/25 02:59:04;;;;;;;12.05;6.43;;;;;;;;;;13007247;19;20452;-62
2023/05/25 03:03:22;;;;;;;;;;;;;;;;;;13007118;19;20018;-62
2023/05/25 03:07:56;;;;;;;14.23;8.20;;;;;;;;;;13005951;19;19922;-62
2023/05/25 03:12:13;;;;;;;10.48;7.28;;;;;;;;;;13005299;19;20014;-62
2023/05/25 03:16:34;;;;;;;10.60;6.50;;;;;;;;;;13005679;19;20007;-62
2023/05/25 03:20:54;;;;;;;13.68;7.45;;;;;;;;;;13005453;19;20011;-62
2023/05/25 03:25:11;;;;;;;13.32;7.43;;;;;;;;;;13002578;19;20385;-63
2023/05/25 03:29:29;;;;;;;13.43;7.18;;;;;;;;;;13005208;19;20003;-62
2023/05/25 03:33:48;;;;;;;12.10;7.20;;;;;;;;;;13004718;19;20006;-63
2023/05/25 03:38:06;;;;;;;;;;;;;;;;;;13003933;19;20011;-64
2023/05/25 03:42:24;;;;;;;9.38;6.55;;;;;;;;;;13003649;19;19941;-62
2023/05/25 03:46:41;;;;;;;14.43;7.55;;;;;;;;;;13003944;19;20013;-62
2023/05/25 03:50:59;;;;;;;;;;;;;;;;;;13004782;19;20018;-62
2023/05/25 03:55:19;;;;;;;11.20;6.55;;;;;;;;;;13003832;19;19915;-62
2023/05/25 03:59:36;;;;;;;17.65;6.80;;;;;;;;;;13003622;19;20006;-63
2023/05/25 04:03:55;;;;;;;11.18;5.65;;;;;;;;;;13002571;19;20002;-62
2023/05/25 04:08:18;;;;;;;12.05;6.47;;;;;;;;;;13002846;19;20026;-63
2023/05/25 04:12:36;;;;;;;12.68;6.97;;;;;;;;;;13002987;19;20032;-63
2023/05/25 04:16:55;;;;;;;10.18;6.35;;;;;;;;;;13002708;19;20480;-63
2023/05/25 04:21:15;;;;;;;9.60;6.05;;;;;;;;;;13001811;19;20011;-63
2023/05/25 04:25:33;;;;;;;13.95;5.72;;;;;;;;;;13001404;19;20006;-63
2023/05/25 04:29:53;;;;;;;10.18;5.85;;;;;;;;;;13001888;19;20011;-63
2023/05/25 04:34:10;;;;;;;9.50;6.10;;;;;;;;;;13001142;19;20010;-62
2023/05/25 04:38:29;;;;;;;12.27;5.95;;;;;;;;;;13009818;19;20010;-63
2023/05/25 04:42:47;;;;;;;;;;;;;;;;;;13013473;19;20018;-62
2023/05/25 04:47:06;;;;;;;11.60;6.53;;;;;;;;;;13012878;19;20337;-63
2023/05/25 04:51:24;;;;;;;10.32;6.18;;;;;;;;;;13013459;19;20006;-62
2023/05/25 04:55:43;;;;;;;9.07;5.68;;;;;;;;;;13013633;19;20011;-62
2023/05/25 05:00:01;;;;;;;;;;;;;;;;;;13014031;19;20345;-62
2023/05/25 05:04:19;;;;;;;9.93;5.60;;;;;;;;;;13012370;19;19926;-61
2023/05/25 05:08:37;;;;;;;10.05;4.78;;;;;;;;;;13012397;19;20473;-61
2023/05/25 05:12:55;;;;;;;;;;;;;;;;;;13013163;19;20011;-61
2023/05/25 05:17:13;;;;;;;10.02;5.90;;;;;;;;;;13011317;19;19921;-62
2023/05/25 05:21:31;;;;;;;;;;;;;;;;;;13012145;19;20341;-62
2023/05/25 05:25:49;;;;;;;11.82;6.20;;;;;;;;;;13011314;19;19930;-62
2023/05/25 05:30:07;;;;;;;10.35;5.50;;;;;;;;;;13010472;19;20013;-61
2023/05/25 05:34:25;;;;;;;10.73;6.50;;;;;;;;;;13011223;19;20015;-62
2023/05/25 05:38:45;;;;;;;11.05;5.65;;;;;;;;;;13011107;19;20006;-61
2023/05/25 05:43:05;;;;;;;10.57;6.30;;;;;;;;;;13009346;19;20014;-62
2023/05/25 05:47:23;;;;;;;9.27;5.57;;;;;;;;;;13008568;19;20469;-62
2023/05/25 05:51:41;;;;;;;;;;;;;;;;;;13010786;19;20034;-62
2023/05/25 05:55:59;;;;;;;10.05;5.20;;;;;;;;;;13010063;19;19915;-62
2023/05/25 06:00:17;;;;;;;;;;;;;;;;;;13010349;19;20365;-63
2023/05/25 06:04:37;;;;;;;12.48;6.15;;;;;;;;;;13009278;19;19914;-62
2023/05/25 06:08:55;;;;;;;8.32;6.00;;;;;;;;;;13009348;19;20347;-62
2023/05/25 06:13:13;;;;;;;10.27;5.88;;;;;;;;;;13008509;19;20122;-62
2023/05/25 06:17:31;;;;;;;10.35;6.38;;;;;;;;;;13009309;19;20010;-62
2023/05/25 06:21:49;;;;;;;11.55;5.28;;;;;;;;;;13008672;19;20014;-63
2023/05/25 06:26:07;;;;;;;9.40;5.28;;;;;;;;;;13006951;19;20484;-63
2023/05/25 06:30:25;;;;;;;7.82;4.70;;;;;;;;;;13008032;19;20006;-62
2023/05/25 06:34:43;;;;;;;7.90;5.28;;;;;;;;;;13008014;19;20017;-63
2023/05/25 06:39:01;;;;;;;8.57;5.93;;;;;;;;;;13007490;19;20010;-62
2023/05/25 06:43:20;;;;;;;9.27;5.82;;;;;;;;;;13005701;19;20471;-62
2023/05/25 06:47:38;;;;;;;8.35;5.35;;;;;;;;;;13005954;19;20007;-62
2023/05/25 06:51:56;;;;;;;7.20;4.75;;;;;;;;;;13007267;19;20033;-62
2023/05/25 06:56:13;;;;;;;7.57;5.13;;;;;;;;;;13006206;19;20010;-62
2023/05/25 07:00:32;;;;;;;7.88;5.43;;;;;;;;;;13004214;19;20010;-63
2023/05/25 07:04:50;;;;;;;12.43;6.00;;;;;;;;;;13006274;19;19999;-62
2023/05/25 07:09:09;;;;;;;10.50;6.22;;;;;;;;;;13005890;19;20002;-62
2023/05/25 07:13:28;;;;;;;7.68;5.50;;;;;;;;;;13005672;19;20018;-62
2023/05/25 07:17:46;;;;;;;12.55;4.70;;;;;;;;;;13005559;19;20022;-63
2023/05/25 07:22:04;;;;;;;9.50;4.32;;;;;;;;;;13004693;19;20014;-62
2023/05/25 07:26:22;;;;;;;;;;;;;;;;;;13005584;19;20045;-62
2023/05/25 07:30:40;;;;;;;6.25;3.85;;;;;;;;;;13005046;19;19918;-62
2023/05/25 07:34:58;;;;;;;9.70;4.95;;;;;;;;;;13004316;19;20469;-62
2023/05/25 07:39:16;;;;;;;10.05;5.78;;;;;;;;;;13003826;19;20026;-62
2023/05/25 07:43:34;;;;;;;8.63;5.30;;;;;;;;;;13002860;19;20014;-62
2023/05/25 07:47:52;;;;;;;7.68;4.68;;;;;;;;;;13003585;19;20003;-62
2023/05/25 07:52:14;;;;;;;7.63;5.22;;;;;;;;;;13002934;19;20105;-63
2023/05/25 07:56:32;;;;;;;;;;;;;;;;;;13003899;19;20397;-62
2023/05/25 08:00:50;;;;;;;9.90;4.97;;;;;;;;;;13003282;19;19915;-63
2023/05/25 08:05:08;;;;;;;8.98;5.20;;;;;;;;;;13001901;19;20011;-63
2023/05/25 08:09:27;;;;;;;10.20;6.05;;;;;;;;;;13003027;19;20126;-62
2023/05/25 08:13:45;;;;;;;8.15;5.50;;;;;;;;;;13002975;19;20473;-63
2023/05/25 08:18:03;;;;;;;8.30;5.25;;;;;;;;;;13001448;19;20010;-62
2023/05/25 08:22:21;;;;;;;12.82;6.30;;;;;;;;;;13002293;19;20006;-63
2023/05/25 08:26:40;;;;;;;8.68;5.78;;;;;;;;;;12999277;19;20015;-62
2023/05/25 08:31:10;;;;;;;9.65;5.53;;;;;;;;;;13001200;19;20026;-62
2023/05/25 08:35:28;;;;;;;10.43;5.90;;;;;;;;;;13001477;19;20019;-62
2023/05/25 08:39:45;;;;;;;10.38;5.68;;;;;;;;;;13001822;19;20007;-62
2023/05/25 08:44:05;;;;;;;9.82;6.25;;;;;;;;;;12999719;19;20450;-62
2023/05/25 08:48:25;;;;;;;7.88;6.30;;;;;;;;;;13000570;19;20014;-62
2023/05/25 08:53:03;;;;;;;12.25;6.93;;;;;;;;;;13000464;19;20034;-62
2023/05/25 08:57:54;;;;;;;12.18;6.63;;;;;;;;;;12999487;19;20043;-62
2023/05/25 09:02:30;;;;;;;10.80;6.18;;;;;;;;;;12999472;19;20007;-62
2023/05/25 09:06:48;;;;;;;12.40;7.57;;;;;;;;;;12999860;19;20047;-63
2023/05/25 09:11:27;;;;;;;12.60;7.03;;;;;;;;;;12999477;19;20034;-63
2023/05/25 09:15:56;;;;;;;12.68;8.13;;;;;;;;;;12998216;19;20067;-61
2023/05/25 09:20:17;;;;;;;11.05;6.95;;;;;;;;;;12998948;19;20026;-62
2023/05/25 09:24:35;;;;;;;11.77;7.28;;;;;;;;;;13008190;19;20014;-62
2023/05/25 09:28:54;;;;;;;10.65;5.32;;;;;;;;;;13010969;19;20010;-61
2023/05/25 09:33:13;;;;;;;10.20;6.70;;;;;;;;;;13010639;19;20350;-62
2023/05/25 09:37:31;;;;;;;15.50;7.45;;;;;;;;;;13010871;19;20015;-62
2023/05/25 09:41:49;;;;;;;12.00;6.97;;;;;;;;;;13010198;19;20347;-62
2023/05/25 09:46:09;;;;;;;11.88;6.85;;;;;;;;;;13009448;19;20432;-62
2023/05/25 09:50:28;;;;;;;10.10;6.80;;;;;;;;;;13009147;19;20019;-62
2023/05/25 09:54:50;;;;;;;11.38;6.50;;;;;;;;;;13010103;19;20010;-62
2023/05/25 09:59:11;;;;;;;16.05;7.70;;;;;;;;;;13008069;19;20355;-61
2023/05/25 10:03:29;;;;;;;11.85;7.43;;;;;;;;;;13009732;19;19999;-62
2023/05/25 10:07:52;;;;;;;11.77;7.20;;;;;;;;;;13009329;19;20018;-61
2023/05/25 10:12:11;;;;;;;10.90;7.00;;;;;;;;;;13007123;19;20476;-62
2023/05/25 10:16:33;;;;;;;11.70;5.75;;;;;;;;;;13008997;19;20011;-62
2023/05/25 10:21:02;;;;;;;14.82;6.47;;;;;;;;;;13008717;19;20007;-62
2023/05/25 10:25:44;;;;;;;8.73;5.40;;;;;;;;;;13008199;19;20006;-62
2023/05/25 10:30:04;;;;;;;11.27;6.15;;;;;;;;;;13006276;19;20018;-65
2023/05/25 10:34:21;;;;;;;11.98;7.25;;;;;;;;;;13004864;19;20512;-62
2023/05/25 10:38:43;;;;;;;11.23;7.05;;;;;;;;;;13006332;19;20496;-62
2023/05/25 10:43:03;;;;;;;17.27;8.13;;;;;;;;;;13007021;19;20007;-63
2023/05/25 10:47:21;;;;;;;11.15;6.93;;;;;;;;;;13005441;19;20006;-61
2023/05/25 10:51:40;;;;;;;14.50;6.80;;;;;;;;;;13007337;19;20024;-62
2023/05/25 10:56:03;;;;;;;10.25;6.78;;;;;;;;;;13007525;19;20007;-62
2023/05/25 11:00:21;;;;;;;10.75;6.45;;;;;;;;;;13007068;19;20029;-62
2023/05/25 11:04:39;;;;;;;10.60;6.88;;;;;;;;;;13005645;19;19995;-61
2023/05/25 11:08:59;;;;;;;13.38;7.53;;;;;;;;;;13006155;19;20006;-61
2023/05/25 11:13:44;;;;;;;12.90;6.85;;;;;;;;;;13006076;19;20006;-62
2023/05/25 11:18:03;;;;;;;10.85;6.65;;;;;;;;;;13005692;19;20002;-62
2023/05/25 11:22:35;;;;;;;8.60;5.97;;;;;;;;;;13006700;19;20035;-62
2023/05/25 11:26:58;;;;;;;11.40;7.10;;;;;;;;;;13004967;19;20220;-63
2023/05/25 11:31:22;;;;;;;11.15;5.78;;;;;;;;;;13004853;19;19998;-63
2023/05/25 11:35:40;;;;;;;12.60;6.78;;;;;;;;;;13006033;19;20037;-62
2023/05/25 11:39:58;;;;;;;9.80;6.13;;;;;;;;;;13004944;19;20469;-62
2023/05/25 11:44:29;;;;;;;11.65;6.53;;;;;;;;;;13003657;19;20010;-64
2023/05/25 11:48:54;;;;;;;10.05;5.78;;;;;;;;;;13004043;19;20018;-63
2023/05/25 11:53:12;;;;;;;8.35;5.20;;;;;;;;;;13003851;19;20468;-62
2023/05/25 11:57:30;;;;;;;10.05;6.40;;;;;;;;;;13002560;19;19998;-63
2023/05/25 12:02:03;;;;;;;9.43;4.93;;;;;;;;;;13004338;19;20046;-63
2023/05/25 12:06:32;;;;;;;7.80;4.90;;;;;;;;;;13003305;19;20010;-63
2023/05/25 12:10:53;;;;;;;7.28;4.32;;;;;;;;;;13003481;19;20006;-62
2023/05/25 12:15:19;;;;;;;11.00;6.28;;;;;;;;;;13003058;19;20014;-63
2023/05/25 12:19:39;;;;;;;9.40;5.15;;;;;;;;;;13001578;19;20453;-63
2023/05/25 12:23:58;;;;;;;8.68;4.80;;;;;;;;;;13002272;19;20013;-62
2023/05/25 12:28:16;;;;;;;13.43;6.07;;;;;;;;;;12999502;19;20015;-62
2023/05/25 12:33:11;;;;;;;8.15;4.47;;;;;;;;;;13001608;19;20037;-62
2023/05/25 12:37:30;;;;;;;9.25;4.90;;;;;;;;;;13000500;19;20007;-62
2023/05/25 12:41:51;;;;;;;9.05;6.13;;;;;;;;;;13001441;19;20014;-63
2023/05/25 12:46:22;;;;;;;9.52;5.88;;;;;;;;;;12999838;19;20003;-63
2023/05/25 12:50:57;;;;;;;9.18;5.63;;;;;;;;;;13000845;19;19999;-63
2023/05/25 12:55:24;;;;;;;9.48;5.53;;;;;;;;;;13000435;19;20015;-63
2023/05/25 12:59:46;;;;;;;6.63;5.32;;;;;;;;;;13010101;19;20480;-62
2023/05/25 13:04:04;;;;;;;7.47;4.80;;;;;;;;;;13012283;19;20346;-63
2023/05/25 13:08:22;;;;;;;7.43;3.90;;;;;;;;;;13012249;19;20021;-63
2023/05/25 13:12:40;;;;;;;7.18;4.05;;;;;;;;;;13012756;19;20010;-62
2023/05/25 13:16:58;;;;;;;11.90;6.35;;;;;;;;;;13012542;19;20011;-63
2023/05/25 13:21:16;;;;;;;;;;;;;;;;;;13012273;19;20034;-63
2023/05/25 13:25:35;;;;;;;9.48;5.28;;;;;;;;;;13011966;19;19911;-63
2023/05/25 13:29:53;;;;;;;15.18;4.65;;;;;;;;;;13010102;19;20041;-63
2023/05/25 13:34:12;;;;;;;12.65;4.40;;;;;;;;;;13010719;19;20011;-63
2023/05/25 13:38:29;;;;;;;8.77;5.65;;;;;;;;;;13011570;19;20018;-63
2023/05/25 13:42:48;;;;;;;11.77;4.47;;;;;;;;;;13010403;19;20010;-62
2023/05/25 13:47:07;;;;;;;9.00;4.05;;;;;;;;;;13009517;19;20010;-62
2023/05/25 13:51:25;;;;;;;6.95;4.07;;;;;;;;;;13010543;19;20497;-62
2023/05/25 13:55:43;;;;;;;;;;;;;;;;;;13010894;19;20025;-63
2023/05/25 14:00:01;;;;;;;7.93;4.18;;;;;;;;;;13010010;19;19937;-62
2023/05/25 14:04:19;;;;;;;7.05;4.57;;;;;;;;;;13009576;19;20011;-62
2023/05/25 14:08:37;;;;;;;8.32;5.32;;;;;;;;;;13008871;19;20006;-62
2023/05/25 14:12:56;;;;;;;5.68;3.53;;;;;;;;;;13009346;19;20009;-62
2023/05/25 14:17:14;;;;;;;6.78;4.38;;;;;;;;;;13008223;19;20002;-62
2023/05/25 14:21:32;;;;;;;10.30;6.07;;;;;;;;;;13008147;19;20339;-62
2023/05/25 14:25:51;;;;;;;13.25;6.30;;;;;;;;;;13006891;19;20007;-62
2023/05/25 14:30:10;;;;;;;6.68;4.68;;;;;;;;;;13008172;19;20350;-62
2023/05/25 14:34:28;;;;;;;13.85;5.88;;;;;;;;;;13008251;19;20018;-62
2023/05/25 14:38:46;;;;;;;16.27;6.97;;;;;;;;;;13007728;19;20402;-62
2023/05/25 14:43:04;;;;;;;10.50;6.07;;;;;;;;;;13006230;19;20445;-62
2023/05/25 14:47:22;;;;;;;9.70;6.18;;;;;;;;;;13007618;19;20026;-62
2023/05/25 14:51:40;;;;;;;8.52;4.70;;;;;;;;;;13007152;19;20350;-62
2023/05/25 14:55:58;;;;;;;8.93;6.25;;;;;;;;;;13005480;19;20090;-61
2023/05/25 15:00:15;;;;;;;;;;;;;;;;;;13006490;19;20014;-62
2023/05/25 15:04:33;;;;;;;15.15;6.55;;;;;;;;;;13006535;19;19918;-62
2023/05/25 15:08:51;;;;;;;13.73;6.43;;;;;;;;;;13006366;19;20017;-62
2023/05/25 15:13:09;;;;;;;10.60;6.55;;;;;;;;;;13005245;19;20354;-62
2023/05/25 15:17:29;;;;;;;11.05;6.57;;;;;;;;;;13006115;19;20016;-62
2023/05/25 15:21:47;;;;;;;8.93;6.38;;;;;;;;;;13003806;19;20477;-62
2023/05/25 15:26:06;;;;;;;12.43;6.78;;;;;;;;;;13004386;19;20017;-62
2023/05/25 15:30:26;;;;;;;;;;;;;;;;;;13005861;19;20011;-62
2023/05/25 15:34:44;;;;;;;14.10;6.70;;;;;;;;;;13005242;19;19921;-62
2023/05/25 15:39:04;;;;;;;9.32;6.40;;;;;;;;;;13003727;19;20009;-63
2023/05/25 15:43:21;;;;;;;10.93;6.78;;;;;;;;;;13003761;19;20026;-62
2023/05/25 15:47:40;;;;;;;14.68;8.02;;;;;;;;;;13004031;19;20029;-62
2023/05/25 15:51:57;;;;;;;11.30;7.75;;;;;;;;;;13004212;19;20014;-62
2023/05/25 15:56:15;;;;;;;10.57;7.18;;;;;;;;;;13002964;19;19998;-62
2023/05/25 16:00:33;;;;;;;8.32;6.35;;;;;;;;;;13003538;19;20010;-62
2023/05/25 16:04:52;;;;;;;14.25;7.82;;;;;;;;;;13001356;19;20011;-62
2023/05/25 16:09:11;;;;;;;12.18;8.27;;;;;;;;;;13001721;19;20010;-61
2023/05/25 16:13:28;;;;;;;14.45;8.13;;;;;;;;;;13003376;19;20006;-62
2023/05/25 16:17:46;;;;;;;13.90;7.75;;;;;;;;;;13002909;19;20007;-61
2023/05/25 16:22:05;;;;;;;12.15;7.93;;;;;;;;;;13001780;19;20093;-61
2023/05/25 16:26:23;;;;;;;11.98;7.50;;;;;;;;;;13002003;19;20038;-62
2023/05/25 16:30:41;;;;;;;11.10;8.15;;;;;;;;;;13001651;19;20003;-61
2023/05/25 16:35:00;;;;;;;11.38;7.82;;;;;;;;;;13002153;19;20374;-61
2023/05/25 16:39:17;;;;;;;15.70;8.13;;;;;;;;;;13001383;19;20021;-62
2023/05/25 16:43:35;;;;;;;11.27;7.63;;;;;;;;;;13000685;19;20456;-61
2023/05/25 16:47:54;;;;;;;8.70;6.18;;;;;;;;;;13000614;19;20007;-61
2023/05/25 16:52:12;;;;;;;14.98;6.63;;;;;;;;;;13000883;19;20024;-61
2023/05/25 16:56:30;;;;;;;;;;;;;;;;;;13001749;19;20010;-61
2023/05/25 17:00:47;;;;;;;11.30;6.90;;;;;;;;;;13000747;19;19937;-61
2023/05/25 17:05:08;;;;;;;11.07;7.38;;;;;;;;;;12999885;19;20007;-62
2023/05/25 17:09:25;;;;;;;14.57;8.63;;;;;;;;;;12999820;19;20034;-63
2023/05/25 17:13:45;;;;;;;12.50;7.47;;;;;;;;;;13000192;19;20006;-63
2023/05/25 17:18:02;;;;;;;;;;;;;;;;;;12999776;19;20006;-63
2023/05/25 17:22:21;;;;;;;8.60;6.38;;;;;;;;;;12999401;19;19935;-62
2023/05/25 17:26:40;;;;;;;13.60;7.30;;;;;;;;;;12999136;19;20002;-63
2023/05/25 17:30:58;;;;;;;9.27;5.88;;;;;;;;;;12999755;19;20017;-63
2023/05/25 17:35:16;;;;;;;9.63;6.25;;;;;;;;;;12998304;19;20021;-63
2023/05/25 17:39:35;;;;;;;12.23;6.93;;;;;;;;;;12998640;19;20010;-63
2023/05/25 17:43:54;;;;;;;9.55;6.85;;;;;;;;;;12999676;19;20007;-63
2023/05/25 17:48:13;;;;;;;16.25;8.65;;;;;;;;;;13008979;19;20030;-62
2023/05/25 17:52:30;;;;;;;16.15;9.50;;;;;;;;;;13010658;19;20033;-63
2023/05/25 17:56:49;;;;;;;11.23;7.53;;;;;;;;;;13010229;19;20052;-63
2023/05/25 18:01:07;;;;;;;16.10;8.48;;;;;;;;;;13009342;19;20006;-63
2023/05/25 18:05:25;;;;;;;12.23;8.30;;;;;;;;;;13009965;19;20014;-63
2023/05/25 18:09:46;;;;;;;23.50;13.43;;;;;;;;;;13008971;19;20353;-63
2023/05/25 18:14:05;;;;;;;41.85;23.05;;;;;;;;;;13008638;19;20032;-63
2023/05/25 18:18:24;;;;;;;40.08;19.17;;;;;;;;;;13009474;19;20015;-63
2023/05/25 18:22:43;;;;;;;29.95;15.45;;;;;;;;;;13009438;19;20017;-63
2023/05/25 18:27:02;;;;;;;25.95;12.73;;;;;;;;;;13007552;19;20018;-63
2023/05/25 18:31:23;;;;;;;20.33;10.85;;;;;;;;;;13009934;19;20026;-63
2023/05/25 18:35:41;;;;;;;15.95;9.90;;;;;;;;;;13008310;19;20472;-63
2023/05/25 18:40:00;;;;;;;20.15;8.32;;;;;;;;;;13008548;19;20074;-63
2023/05/25 18:44:20;;;;;;;13.30;7.78;;;;;;;;;;13007600;19;20017;-63
2023/05/25 18:48:40;;;;;;;13.80;7.50;;;;;;;;;;13008475;19;20018;-62
2023/05/25 18:53:00;;;;;;;11.10;7.30;;;;;;;;;;13007539;19;20007;-63
2023/05/25 18:57:18;;;;;;;12.32;7.20;;;;;;;;;;13004402;19;20034;-63
2023/05/25 19:01:38;;;;;;;12.50;6.47;;;;;;;;;;13007305;19;20014;-62
2023/05/25 19:05:58;;;;;;;10.65;6.68;;;;;;;;;;13006647;19;20007;-63
2023/05/25 19:10:15;;;;;;;15.15;7.82;;;;;;;;;;13005446;19;20469;-62
2023/05/25 19:14:34;;;;;;;10.88;6.40;;;;;;;;;;13004744;19;20014;-63
2023/05/25 19:18:53;;;;;;;10.73;7.22;;;;;;;;;;13006437;19;20003;-62
2023/05/25 19:23:10;;;;;;;;;;;;;;;;;;13005835;19;20023;-62
2023/05/25 19:27:30;;;;;;;11.25;7.15;;;;;;;;;;13006296;19;19914;-62
2023/05/25 19:31:48;;;;;;;13.23;7.40;;;;;;;;;;13004951;19;20026;-62
2023/05/25 19:36:07;;;;;;;;;;;;;;;;;;13004769;19;20022;-62
2023/05/25 19:40:25;;;;;;;11.80;7.30;;;;;;;;;;13004615;19;19934;-62
2023/05/25 19:44:44;;;;;;;12.15;6.78;;;;;;;;;;13003900;19;20500;-63
2023/05/25 19:49:02;;;;;;;10.75;6.47;;;;;;;;;;13002024;19;20070;-63
2023/05/25 19:53:20;;;;;;;8.18;5.28;;;;;;;;;;13004178;19;20461;-62
2023/05/25 19:57:39;;;;;;;9.82;6.50;;;;;;;;;;13004034;19;20048;-63
2023/05/25 20:01:58;;;;;;;10.93;7.00;;;;;;;;;;13003356;19;20011;-62
2023/05/25 20:06:17;;;;;;;18.15;7.75;;;;;;;;;;13002608;19;20006;-62
2023/05/25 20:10:38;;;;;;;15.05;7.50;;;;;;;;;;13002413;19;20378;-61
2023/05/25 20:14:57;;;;;;;9.38;6.78;;;;;;;;;;13003092;19;20003;-62
2023/05/25 20:19:17;;;;;;;11.32;7.53;;;;;;;;;;13002402;19;20010;-62
2023/05/25 20:23:44;;;;;;;16.02;7.55;;;;;;;;;;13002918;19;20007;-62
2023/05/25 20:28:05;;;;;;;13.98;8.57;;;;;;;;;;13000541;19;20014;-62
2023/05/25 20:32:23;;;;;;;12.55;7.53;;;;;;;;;;13001859;19;20018;-63
2023/05/25 20:36:42;;;;;;;11.95;7.55;;;;;;;;;;13001744;19;20010;-61
2023/05/25 20:41:00;;;;;;;11.50;7.35;;;;;;;;;;13001686;19;20002;-62
2023/05/25 20:45:18;;;;;;;12.00;8.20;;;;;;;;;;13001416;19;20387;-62
2023/05/25 20:49:35;;;;;;;;;;;;;;;;;;13000832;19;20032;-62
2023/05/25 20:53:54;;;;;;;15.30;8.82;;;;;;;;;;13000920;19;19914;-62
2023/05/25 20:58:13;;;;;;;14.45;8.88;;;;;;;;;;12999984;19;20006;-62
2023/05/25 21:02:31;;;;;;;16.13;8.70;;;;;;;;;;13000463;19;19999;-62
2023/05/25 21:06:49;;;;;;;16.70;9.45;;;;;;;;;;13001241;19;20082;-63
2023/05/25 21:11:07;;;;;;;18.73;10.57;;;;;;;;;;12998547;19;20045;-63
2023/05/25 21:15:25;;;;;;;;;;;;;;;;;;13001097;19;20037;-62
2023/05/25 21:19:44;;;;;;;15.40;9.43;;;;;;;;;;13006295;19;19975;-61
2023/05/25 21:24:02;;;;;;;14.93;9.15;;;;;;;;;;13012621;19;20018;-62
2023/05/25 21:28:23;;;;;;;17.10;10.82;;;;;;;;;;13011198;19;20354;-62
2023/05/25 21:32:42;;;;;;;18.15;10.75;;;;;;;;;;13011772;19;20007;-62
2023/05/25 21:37:00;;;;;;;19.15;11.07;;;;;;;;;;13011580;19;20449;-62
2023/05/25 21:41:18;;;;;;;17.25;11.30;;;;;;;;;;13011704;19;20563;-62
2023/05/25 21:45:36;;;;;;;16.65;10.38;;;;;;;;;;13010259;19;20006;-62
2023/05/25 21:49:55;;;;;;;16.88;11.60;;;;;;;;;;13009625;19;20006;-62
2023/05/25 21:54:14;;;;;;;19.00;12.35;;;;;;;;;;13010147;19;20037;-62
2023/05/25 21:58:32;;;;;;;24.38;12.18;;;;;;;;;;13010140;19;20362;-62
2023/05/25 22:02:50;;;;;;;19.90;12.52;;;;;;;;;;13009974;19;20007;-62
2023/05/25 22:07:09;;;;;;;16.17;10.55;;;;;;;;;;13009455;19;19999;-62
2023/05/25 22:11:27;;;;;;;17.65;11.90;;;;;;;;;;13009381;19;20050;-62
2023/05/25 22:15:45;;;;;;;;;;;;;;;;;;13009773;19;20013;-62
2023/05/25 22:20:21;;;;;;;20.77;12.05;;;;;;;;;;13008666;19;19911;-62
2023/05/25 22:24:39;;;;;;;17.95;11.50;;;;;;;;;;13009017;19;20476;-62
2023/05/25 22:28:57;;;;;;;18.23;11.35;;;;;;;;;;13007321;19;20011;-61
2023/05/25 22:33:16;;;;;;;17.00;11.07;;;;;;;;;;13008086;19;20007;-62
2023/05/25 22:37:33;;;;;;;17.13;10.82;;;;;;;;;;13008628;19;20026;-62
2023/05/25 22:41:51;;;;;;;17.83;10.35;;;;;;;;;;13007891;19;20018;-61
2023/05/25 22:46:09;;;;;;;18.45;10.65;;;;;;;;;;13006657;19;20021;-61
2023/05/25 22:50:29;;;;;;;13.18;9.32;;;;;;;;;;13006854;19;20026;-62
2023/05/25 22:54:46;;;;;;;17.25;10.38;;;;;;;;;;13007453;19;20006;-63
2023/05/25 22:59:04;;;;;;;;;;;;;;;;;;13007471;19;20359;-63
2023/05/25 23:03:22;;;;;;;14.40;9.30;;;;;;;;;;13006758;19;19945;-62
2023/05/25 23:07:40;;;;;;;16.10;10.65;;;;;;;;;;13006403;19;20224;-62
2023/05/25 23:11:59;;;;;;;15.43;9.90;;;;;;;;;;13006575;19;20017;-62
2023/05/25 23:16:18;;;;;;;16.00;10.40;;;;;;;;;;13006354;19;20022;-63
2023/05/25 23:20:36;;;;;;;17.75;10.15;;;;;;;;;;13006204;19;20030;-62
2023/05/25 23:24:55;;;;;;;16.95;11.02;;;;;;;;;;13006124;19;20002;-63
2023/05/25 23:29:13;;;;;;;18.35;10.10;;;;;;;;;;13004674;19;20018;-62
2023/05/25 23:33:31;;;;;;;;;;;;;;;;;;13006410;19;20018;-62
2023/05/25 23:37:50;;;;;;;19.02;10.77;;;;;;;;;;13005632;19;19950;-62
2023/05/25 23:42:10;;;;;;;18.10;10.63;;;;;;;;;;13002144;19;20018;-62
2023/05/25 23:46:30;;;;;;;13.15;9.63;;;;;;;;;;13004050;19;20025;-62
2023/05/25 23:50:48;;;;;;;15.38;10.10;;;;;;;;;;13004063;19;20011;-62
2023/05/25 23:55:07;;;;;;;14.55;10.20;;;;;;;;;;13001447;19;20579;-62
2023/05/25 23:59:25;;;;;;;17.95;9.85;;;;;;;;;;13003886;19;20022;-61
